createdAt,value
2019-03-30T00:00:23.767Z,10.43
2019-03-30T00:05:26.637Z,9.80
2019-03-30T00:10:28.292Z,9.57
2019-03-30T00:15:30.084Z,9.13
2019-03-30T00:20:31.725Z,8.00
2019-03-30T00:25:33.421Z,8.17
2019-03-30T00:30:36.408Z,7.50
2019-03-30T00:35:38.561Z,9.30
2019-03-30T00:40:42.042Z,8.87
2019-03-30T00:45:44.144Z,8.40
2019-03-30T00:50:45.882Z,10.90
2019-03-30T00:55:47.682Z,10.43
2019-03-30T01:00:49.589Z,9.23
2019-03-30T01:05:54.070Z,11.43
2019-03-30T01:10:56.875Z,9.63
2019-03-30T01:15:58.577Z,10.30
2019-03-30T01:21:00.481Z,12.40
2019-03-30T01:26:03.129Z,10.07
2019-03-30T01:31:05.000Z,12.57
2019-03-30T01:36:06.927Z,14.90
2019-03-30T01:41:08.692Z,15.23
2019-03-30T01:46:10.524Z,15.10
2019-03-30T01:51:12.784Z,13.80
2019-03-30T01:56:17.259Z,14.10
2019-03-30T02:01:21.060Z,13.57
2019-03-30T02:06:23.161Z,14.37
2019-03-30T02:11:30.430Z,14.90
2019-03-30T02:16:32.629Z,13.17
2019-03-30T02:21:34.322Z,14.37
2019-03-30T02:26:36.042Z,14.17
2019-03-30T02:31:38.681Z,11.70
2019-03-30T02:36:40.388Z,14.17
2019-03-30T02:41:42.346Z,14.07
2019-03-30T02:46:44.072Z,17.13
2019-03-30T02:51:45.825Z,18.60
2019-03-30T02:56:47.562Z,14.43
2019-03-30T03:01:49.612Z,14.23
2019-03-30T03:06:52.300Z,17.93
2019-03-30T03:11:54.697Z,13.00
2019-03-30T03:16:56.743Z,11.03
2019-03-30T03:21:58.439Z,17.70
2019-03-30T03:27:00.510Z,13.13
2019-03-30T03:32:02.646Z,15.13
2019-03-30T03:37:04.845Z,14.13
2019-03-30T03:42:07.856Z,16.33
2019-03-30T03:47:10.258Z,13.00
2019-03-30T03:52:13.055Z,13.80
2019-03-30T03:57:18.489Z,15.00
2019-03-30T04:02:22.530Z,13.67
2019-03-30T04:07:26.358Z,15.27
2019-03-30T04:12:29.144Z,15.83
2019-03-30T04:17:30.971Z,10.60
2019-03-30T04:22:36.634Z,15.57
2019-03-30T04:27:39.082Z,15.93
2019-03-30T04:32:43.774Z,25.77
2019-03-30T04:37:46.334Z,16.73
2019-03-30T04:42:48.270Z,15.27
2019-03-30T04:47:50.005Z,17.13
2019-03-30T04:52:51.799Z,13.60
2019-03-30T04:57:57.837Z,16.07
2019-03-30T05:03:04.152Z,14.67
2019-03-30T05:08:06.118Z,14.13
2019-03-30T05:13:08.016Z,13.50
2019-03-30T05:18:09.927Z,21.90
2019-03-30T05:23:12.047Z,14.80
2019-03-30T05:28:14.731Z,18.80
2019-03-30T05:33:17.585Z,15.67
2019-03-30T05:38:19.365Z,16.00
2019-03-30T05:43:22.036Z,19.50
2019-03-30T05:48:24.296Z,17.30
2019-03-30T05:53:27.320Z,16.43
2019-03-30T05:58:29.435Z,18.77
2019-03-30T06:03:31.077Z,17.40
2019-03-30T06:08:32.835Z,20.50
2019-03-30T06:13:34.750Z,16.27
2019-03-30T06:18:36.607Z,17.77
2019-03-30T06:23:38.528Z,18.87
2019-03-30T06:28:40.365Z,17.33
2019-03-30T06:33:43.372Z,19.13
2019-03-30T06:38:45.309Z,23.43
2019-03-30T06:43:47.405Z,17.73
2019-03-30T06:48:49.285Z,16.80
2019-03-30T06:53:51.015Z,20.03
2019-03-30T06:58:52.731Z,16.93
2019-03-30T07:03:54.363Z,20.67
2019-03-30T07:08:56.580Z,18.13
2019-03-30T07:14:01.366Z,23.70
2019-03-30T07:19:03.724Z,25.50
2019-03-30T07:24:05.526Z,29.07
2019-03-30T07:29:08.751Z,31.77
2019-03-30T07:34:10.830Z,28.30
2019-03-30T07:39:12.649Z,30.33
2019-03-30T07:44:15.407Z,29.03
2019-03-30T07:49:17.664Z,26.20
2019-03-30T07:54:19.704Z,26.87
2019-03-30T07:59:23.512Z,27.83
2019-03-30T08:04:28.449Z,27.87
2019-03-30T08:09:32.483Z,37.30
2019-03-30T08:14:34.396Z,35.43
2019-03-30T08:19:36.992Z,34.70
2019-03-30T08:24:55.376Z,38.80
2019-03-30T08:29:57.893Z,38.40
2019-03-30T08:35:00.417Z,49.83
2019-03-30T08:40:02.882Z,41.97
2019-03-30T08:45:06.684Z,39.90
2019-03-30T08:50:09.818Z,41.70
2019-03-30T08:55:12.759Z,51.30
2019-03-30T09:00:18.132Z,49.53
2019-03-30T09:05:19.903Z,48.67
2019-03-30T09:10:21.700Z,56.70
2019-03-30T09:15:23.512Z,60.03
2019-03-30T09:20:25.441Z,71.47
2019-03-30T09:25:28.525Z,70.23
2019-03-30T09:30:31.252Z,57.77
2019-03-30T09:35:33.766Z,67.30
2019-03-30T09:40:35.924Z,79.17
2019-03-30T09:45:39.177Z,81.23
2019-03-30T09:50:41.054Z,80.40
2019-03-30T09:55:42.915Z,73.23
2019-03-30T10:00:44.934Z,77.13
2019-03-30T10:05:47.140Z,76.17
2019-03-30T10:10:49.914Z,85.87
2019-03-30T10:15:51.636Z,85.83
2019-03-30T10:20:53.954Z,85.40
2019-03-30T10:25:55.760Z,69.53
2019-03-30T10:30:58.030Z,87.07
2019-03-30T10:36:00.715Z,70.30
2019-03-30T10:41:02.647Z,82.50
2019-03-30T10:46:04.782Z,74.63
2019-03-30T10:51:06.623Z,71.40
2019-03-30T10:56:09.179Z,79.43
2019-03-30T11:01:16.712Z,73.00
2019-03-30T11:06:19.744Z,53.77
2019-03-30T11:11:30.374Z,73.73
2019-03-30T11:16:35.806Z,73.53
2019-03-30T11:21:37.638Z,82.70
2019-03-30T11:26:43.832Z,79.70
2019-03-30T11:31:50.194Z,79.80
2019-03-30T11:36:55.450Z,84.97
2019-03-30T11:42:04.118Z,84.20
2019-03-30T11:47:07.323Z,74.33
2019-03-30T11:52:09.631Z,73.00
2019-03-30T11:57:20.355Z,74.90
2019-03-30T12:02:28.199Z,77.63
2019-03-30T12:07:28.938Z,80.80
2019-03-30T12:12:31.068Z,86.80
2019-03-30T12:17:32.835Z,80.60
2019-03-30T12:22:35.607Z,74.53
2019-03-30T12:27:37.619Z,73.30
2019-03-30T12:32:39.542Z,75.40
2019-03-30T12:37:41.407Z,65.47
2019-03-30T12:42:50.461Z,67.17
2019-03-30T12:47:53.556Z,73.87
2019-03-30T12:53:00.876Z,65.60
2019-03-30T12:58:03.872Z,76.90
2019-03-30T13:03:06.050Z,81.20
2019-03-30T13:08:08.187Z,88.07
2019-03-30T13:13:11.801Z,83.50
2019-03-30T13:18:14.502Z,81.67
2019-03-30T13:23:22.273Z,87.33
2019-03-30T13:28:31.628Z,84.57
2019-03-30T13:33:33.453Z,89.70
2019-03-30T13:38:44.660Z,91.67
2019-03-30T13:43:48.645Z,96.80
2019-03-30T13:48:51.095Z,87.53
2019-03-30T13:53:53.474Z,86.40
2019-03-30T13:58:55.479Z,103.63
2019-03-30T14:03:57.335Z,90.37
2019-03-30T14:08:59.341Z,109.00
2019-03-30T14:14:18.628Z,93.60
2019-03-30T14:19:26.384Z,96.47
2019-03-30T14:24:32.106Z,109.27
2019-03-30T14:29:43.069Z,101.70
2019-03-30T14:34:45.011Z,104.93
2019-03-30T14:40:00.362Z,106.50
2019-03-30T14:45:02.912Z,106.50
2019-03-30T14:50:07.640Z,113.63
2019-03-30T14:55:09.771Z,99.23
2019-03-30T15:00:12.132Z,101.57
2019-03-30T15:05:14.509Z,99.00
2019-03-30T15:10:21.547Z,70.73
2019-03-30T15:15:27.997Z,76.77
2019-03-30T15:20:30.774Z,62.47
2019-03-30T15:25:32.683Z,70.50
2019-03-30T15:30:34.768Z,70.20
2019-03-30T15:35:36.678Z,68.13
2019-03-30T15:40:40.212Z,67.00
2019-03-30T15:45:43.450Z,65.93
2019-03-30T15:50:45.179Z,71.20
2019-03-30T15:55:48.004Z,72.40
2019-03-30T16:00:53.106Z,71.97
2019-03-30T16:05:55.588Z,83.23
2019-03-30T16:10:57.347Z,87.67
2019-03-30T16:16:06.779Z,84.93
2019-03-30T16:21:16.319Z,69.30
2019-03-30T16:26:21.326Z,59.50
2019-03-30T16:31:25.048Z,69.57
2019-03-30T16:36:28.108Z,65.20
2019-03-30T16:41:35.792Z,69.63
2019-03-30T16:46:42.670Z,70.70
2019-03-30T16:51:44.620Z,62.83
2019-03-30T16:56:46.405Z,64.23
2019-03-30T17:01:48.192Z,65.67
2019-03-30T17:06:50.382Z,65.77
2019-03-30T17:11:52.113Z,63.67
2019-03-30T17:16:53.853Z,53.43
2019-03-30T17:21:56.115Z,50.90
2019-03-30T17:26:57.879Z,45.97
2019-03-30T17:32:00.075Z,49.87
2019-03-30T17:37:09.971Z,50.83
2019-03-30T17:42:12.521Z,44.20
2019-03-30T17:47:14.324Z,49.10
2019-03-30T17:52:16.499Z,46.20
2019-03-30T17:57:18.316Z,51.57
2019-03-30T18:02:22.948Z,57.57
2019-03-30T18:07:23.664Z,59.07
2019-03-30T18:12:25.310Z,54.10
2019-03-30T18:17:27.357Z,60.60
2019-03-30T18:22:29.537Z,62.33
2019-03-30T18:27:31.261Z,72.83
2019-03-30T18:32:33.168Z,65.47
2019-03-30T18:37:35.460Z,71.40
2019-03-30T18:42:37.644Z,72.73
2019-03-30T18:47:39.787Z,69.07
2019-03-30T18:52:42.866Z,67.60
2019-03-30T18:57:44.687Z,72.53
2019-03-30T19:02:46.398Z,76.03
2019-03-30T19:07:48.417Z,62.73
2019-03-30T19:12:50.240Z,68.70
2019-03-30T19:17:52.258Z,59.13
2019-03-30T19:22:54.486Z,76.90
2019-03-30T19:27:56.227Z,61.90
2019-03-30T19:32:58.015Z,59.57
2019-03-30T19:37:59.733Z,63.67
2019-03-30T19:43:01.986Z,69.70
2019-03-30T19:48:03.741Z,67.50
2019-03-30T19:53:06.287Z,61.30
2019-03-30T19:58:08.073Z,49.77
2019-03-30T20:03:09.859Z,50.87
2019-03-30T20:08:12.775Z,46.30
2019-03-30T20:13:14.793Z,48.07
2019-03-30T20:18:16.800Z,46.63
2019-03-30T20:23:18.903Z,43.80
2019-03-30T20:28:20.831Z,39.10
2019-03-30T20:33:22.569Z,40.47
2019-03-30T20:38:25.843Z,36.30
2019-03-30T20:43:28.430Z,33.53
2019-03-30T20:48:31.252Z,35.50
2019-03-30T20:53:33.408Z,35.47
2019-03-30T20:58:35.484Z,33.70
2019-03-30T21:03:37.226Z,34.60
2019-03-30T21:08:39.283Z,35.83
2019-03-30T21:13:41.053Z,37.40
2019-03-30T21:18:42.878Z,37.43
2019-03-30T21:23:45.090Z,32.60
2019-03-30T21:28:46.884Z,36.37
2019-03-30T21:33:48.676Z,36.60
2019-03-30T21:38:50.556Z,33.60
2019-03-30T21:43:53.150Z,28.87
2019-03-30T21:48:55.269Z,31.93
2019-03-30T21:53:57.446Z,31.17
2019-03-30T21:58:59.248Z,26.00
2019-03-30T22:04:01.037Z,23.60
2019-03-30T22:09:20.335Z,25.00
2019-03-30T22:14:22.123Z,18.97
2019-03-30T22:19:23.939Z,18.00
2019-03-30T22:24:25.716Z,16.50
2019-03-30T22:29:27.511Z,15.10
2019-03-30T22:34:29.266Z,16.00
2019-03-30T22:39:30.985Z,13.70
2019-03-30T22:44:32.841Z,11.90
2019-03-30T22:49:34.593Z,13.50
2019-03-30T22:54:36.369Z,11.00
2019-03-30T22:59:38.028Z,12.50
2019-03-30T23:04:39.709Z,12.90
2019-03-30T23:09:41.455Z,12.30
2019-03-30T23:14:44.015Z,14.40
2019-03-30T23:19:45.829Z,13.53
2019-03-30T23:24:47.681Z,14.20
2019-03-30T23:29:49.434Z,17.07
2019-03-30T23:34:51.488Z,14.33
2019-03-30T23:39:53.240Z,14.37
2019-03-30T23:44:55.590Z,13.40
2019-03-30T23:49:57.438Z,13.83
2019-03-30T23:54:59.190Z,13.23
